Aérodrome :
LOGIN :

S'inscrire | Disclaimer

   EN    FR    IT 

 










Légende :    VFR   VFR Marginal   IFR   IFR Intensif   IFR Très Intensif
Visi : 
Plafond : 
>= 8 km
>= 3000ft
5 à 8 km
1000 à 3000 ft
1500m à 5 km
500 à 1000 ft
800 à 1500m
200 à 500 ft
< 800m
< 200 ft
Symboles :   Orages  Brouillard  Fortes neiges  Fortes précipitations  Vent > 20 kt
SIGMETs :   Divers  Orages  Givrage  Turbulence  Onde Orograph.  Cendres Volcan.






- Altitude de l'aérodrome : 1036 ft
- Code IATA : CLJ


LRCL - Cluj-Napoca International

DERNIER METAR :
  • 261600Z 00000KT 3000 BR OVC002 M02/M02 Q1025

METARs EXPIRÉS :
  • 261530Z VRB02KT 3500 BR OVC003 M02/M02 Q1025
  • 261500Z 08004KT 050V110 3500 BR OVC003 M01/M01 Q1025
  • 261430Z VRB02KT 4000 BR OVC003 M01/M01 Q1025
  • 261400Z 10004KT 080V140 3500 BR OVC003 M01/M01 Q1025
  • 261330Z 06004KT 030V090 3500 BR OVC003 M01/M01 Q1025
  • 261300Z 05006KT 3000 BR OVC002 M01/M01 Q1025

TAF TAF LRCL
Valide du 26 à 15h jusqu'au 27 à 00h UTC


261400Z 2615/2700 VRB04KT 3000 BR OVC003
BECMG 2616/2618 0600 FZFG VV001
BECMG 2618/2620 0350 FZFG



MET'MAP, la Météo Aéronautique d'un coup d'oeil ! - Copyright ORBIFLY Décembre 2007 - Disclaimer

ORBIFLY MET'MAP TEAM :

Programmation & Développement : Alexandra Zaïnal
Sur une idée originale de : Baudouin d'Aumeries
Assistance à la programmation : Marc-Olivier Méhu
Soutien technique & logistique : Manuel Goepfert

Contact : metmap@orbifly.com




SOURCES & CREDITS :

   NOAA